sensor_id;sensor_type;location;lat;lon;timestamp;temperature;humidity
10468;DHT22;5281;48.878;9.394;2022-07-29T00:00:28;20.50;99.90
10468;DHT22;5281;48.878;9.394;2022-07-29T00:02:55;20.50;99.90
10468;DHT22;5281;48.878;9.394;2022-07-29T00:05:22;20.50;99.90
10468;DHT22;5281;48.878;9.394;2022-07-29T00:07:48;20.50;99.90
10468;DHT22;5281;48.878;9.394;2022-07-29T00:10:16;20.50;99.90
10468;DHT22;5281;48.878;9.394;2022-07-29T00:12:43;20.60;99.90
10468;DHT22;5281;48.878;9.394;2022-07-29T00:15:10;20.60;99.90
10468;DHT22;5281;48.878;9.394;2022-07-29T00:17:37;20.60;99.90
10468;DHT22;5281;48.878;9.394;2022-07-29T00:20:04;20.50;99.90
10468;DHT22;5281;48.878;9.394;2022-07-29T00:22:31;20.50;99.90
10468;DHT22;5281;48.878;9.394;2022-07-29T00:24:58;20.50;99.90
10468;DHT22;5281;48.878;9.394;2022-07-29T00:27:26;20.50;99.90
10468;DHT22;5281;48.878;9.394;2022-07-29T00:29:53;20.50;99.90
10468;DHT22;5281;48.878;9.394;2022-07-29T00:32:19;20.40;99.90
10468;DHT22;5281;48.878;9.394;2022-07-29T00:34:46;20.40;99.90
10468;DHT22;5281;48.878;9.394;2022-07-29T00:37:30;20.30;99.90
10468;DHT22;5281;48.878;9.394;2022-07-29T00:56:49;19.80;99.90
10468;DHT22;5281;48.878;9.394;2022-07-29T00:59:16;19.80;99.90
10468;DHT22;5281;48.878;9.394;2022-07-29T01:01:42;19.80;99.90
10468;DHT22;5281;48.878;9.394;2022-07-29T01:04:09;19.70;99.90
10468;DHT22;5281;48.878;9.394;2022-07-29T01:06:36;19.70;99.90
10468;DHT22;5281;48.878;9.394;2022-07-29T01:09:03;19.70;99.90
10468;DHT22;5281;48.878;9.394;2022-07-29T01:11:29;19.70;99.90
10468;DHT22;5281;48.878;9.394;2022-07-29T01:13:58;19.80;99.90
10468;DHT22;5281;48.878;9.394;2022-07-29T01:16:30;19.80;99.90
10468;DHT22;5281;48.878;9.394;2022-07-29T01:19:02;19.80;99.90
10468;DHT22;5281;48.878;9.394;2022-07-29T01:21:48;19.80;99.90
10468;DHT22;5281;48.878;9.394;2022-07-29T01:24:38;19.70;99.90
10468;DHT22;5281;48.878;9.394;2022-07-29T01:27:17;19.70;99.90
10468;DHT22;5281;48.878;9.394;2022-07-29T01:29:52;19.60;99.90
10468;DHT22;5281;48.878;9.394;2022-07-29T01:32:24;19.60;99.90
10468;DHT22;5281;48.878;9.394;2022-07-29T01:34:55;19.60;99.90
10468;DHT22;5281;48.878;9.394;2022-07-29T01:37:27;19.70;99.90
10468;DHT22;5281;48.878;9.394;2022-07-29T01:39:56;19.60;99.90
10468;DHT22;5281;48.878;9.394;2022-07-29T01:42:36;19.60;99.90
10468;DHT22;5281;48.878;9.394;2022-07-29T01:45:12;19.50;99.90
10468;DHT22;5281;48.878;9.394;2022-07-29T01:47:44;19.50;99.90
10468;DHT22;5281;48.878;9.394;2022-07-29T01:50:16;19.50;99.90
10468;DHT22;5281;48.878;9.394;2022-07-29T01:52:52;19.40;99.90
10468;DHT22;5281;48.878;9.394;2022-07-29T01:55:22;19.40;99.90
10468;DHT22;5281;48.878;9.394;2022-07-29T01:57:51;19.40;99.90
10468;DHT22;5281;48.878;9.394;2022-07-29T02:00:19;19.20;99.90
10468;DHT22;5281;48.878;9.394;2022-07-29T02:02:47;19.30;99.90
10468;DHT22;5281;48.878;9.394;2022-07-29T02:05:16;19.30;99.90
10468;DHT22;5281;48.878;9.394;2022-07-29T02:07:44;19.30;99.90
10468;DHT22;5281;48.878;9.394;2022-07-29T02:10:13;19.20;99.90
10468;DHT22;5281;48.878;9.394;2022-07-29T02:12:42;19.20;99.90
10468;DHT22;5281;48.878;9.394;2022-07-29T02:15:10;19.20;99.90
10468;DHT22;5281;48.878;9.394;2022-07-29T02:17:42;19.20;99.90
10468;DHT22;5281;48.878;9.394;2022-07-29T02:20:10;19.10;99.90
10468;DHT22;5281;48.878;9.394;2022-07-29T02:39:29;18.70;99.90
10468;DHT22;5281;48.878;9.394;2022-07-29T02:41:59;18.60;99.90
10468;DHT22;5281;48.878;9.394;2022-07-29T02:44:27;18.50;99.90
10468;DHT22;5281;48.878;9.394;2022-07-29T02:46:58;18.50;99.90
10468;DHT22;5281;48.878;9.394;2022-07-29T02:49:35;18.40;99.90
10468;DHT22;5281;48.878;9.394;2022-07-29T02:52:06;18.40;99.90
10468;DHT22;5281;48.878;9.394;2022-07-29T02:54:40;18.00;99.90
10468;DHT22;5281;48.878;9.394;2022-07-29T02:57:13;18.30;99.90
10468;DHT22;5281;48.878;9.394;2022-07-29T02:59:42;18.30;99.90
10468;DHT22;5281;48.878;9.394;2022-07-29T03:02:09;18.30;99.90
10468;DHT22;5281;48.878;9.394;2022-07-29T03:04:40;18.20;99.90
10468;DHT22;5281;48.878;9.394;2022-07-29T03:07:08;18.20;99.90
10468;DHT22;5281;48.878;9.394;2022-07-29T03:09:38;18.20;99.90
10468;DHT22;5281;48.878;9.394;2022-07-29T03:12:05;18.20;99.90
10468;DHT22;5281;48.878;9.394;2022-07-29T03:14:32;18.10;99.90
10468;DHT22;5281;48.878;9.394;2022-07-29T03:17:00;18.10;99.90
10468;DHT22;5281;48.878;9.394;2022-07-29T03:19:27;18.20;99.90
10468;DHT22;5281;48.878;9.394;2022-07-29T03:21:55;18.20;99.90
10468;DHT22;5281;48.878;9.394;2022-07-29T03:24:27;18.20;99.90
10468;DHT22;5281;48.878;9.394;2022-07-29T03:26:56;18.10;99.90
10468;DHT22;5281;48.878;9.394;2022-07-29T03:29:23;18.10;99.90
10468;DHT22;5281;48.878;9.394;2022-07-29T03:31:50;18.10;99.90
10468;DHT22;5281;48.878;9.394;2022-07-29T03:34:17;18.10;99.90
10468;DHT22;5281;48.878;9.394;2022-07-29T03:36:43;18.10;99.90
10468;DHT22;5281;48.878;9.394;2022-07-29T03:39:12;18.20;99.90
10468;DHT22;5281;48.878;9.394;2022-07-29T03:41:42;18.20;99.90
10468;DHT22;5281;48.878;9.394;2022-07-29T03:44:12;18.20;99.90
10468;DHT22;5281;48.878;9.394;2022-07-29T03:46:41;18.00;99.90
10468;DHT22;5281;48.878;9.394;2022-07-29T03:49:10;17.90;99.90
10468;DHT22;5281;48.878;9.394;2022-07-29T03:51:38;18.00;99.90
10468;DHT22;5281;48.878;9.394;2022-07-29T03:54:05;18.10;99.90
10468;DHT22;5281;48.878;9.394;2022-07-29T03:56:34;18.20;99.90
10468;DHT22;5281;48.878;9.394;2022-07-29T03:59:04;18.20;99.90
10468;DHT22;5281;48.878;9.394;2022-07-29T04:01:32;18.30;99.90
10468;DHT22;5281;48.878;9.394;2022-07-29T04:04:01;18.40;99.90
10468;DHT22;5281;48.878;9.394;2022-07-29T04:06:27;18.40;99.90
10468;DHT22;5281;48.878;9.394;2022-07-29T04:08:54;18.50;99.90
10468;DHT22;5281;48.878;9.394;2022-07-29T04:11:21;18.60;99.90
10468;DHT22;5281;48.878;9.394;2022-07-29T04:13:47;18.60;99.90
10468;DHT22;5281;48.878;9.394;2022-07-29T04:16:14;18.70;99.90
10468;DHT22;5281;48.878;9.394;2022-07-29T04:18:42;18.80;99.90
10468;DHT22;5281;48.878;9.394;2022-07-29T04:21:09;18.70;99.90
10468;DHT22;5281;48.878;9.394;2022-07-29T04:23:35;18.70;99.90
10468;DHT22;5281;48.878;9.394;2022-07-29T04:26:02;18.70;99.90
10468;DHT22;5281;48.878;9.394;2022-07-29T04:28:29;18.80;99.90
10468;DHT22;5281;48.878;9.394;2022-07-29T04:30:55;18.80;99.90
10468;DHT22;5281;48.878;9.394;2022-07-29T04:33:22;18.70;99.90
10468;DHT22;5281;48.878;9.394;2022-07-29T04:49:47;18.90;99.90
10468;DHT22;5281;48.878;9.394;2022-07-29T04:52:14;18.80;99.90
10468;DHT22;5281;48.878;9.394;2022-07-29T04:54:40;19.00;99.90
10468;DHT22;5281;48.878;9.394;2022-07-29T04:57:07;19.20;99.90
10468;DHT22;5281;48.878;9.394;2022-07-29T04:59:34;19.20;99.90
10468;DHT22;5281;48.878;9.394;2022-07-29T05:02:00;19.30;99.90
10468;DHT22;5281;48.878;9.394;2022-07-29T05:04:27;19.50;99.90
10468;DHT22;5281;48.878;9.394;2022-07-29T05:06:55;19.70;99.90
10468;DHT22;5281;48.878;9.394;2022-07-29T05:09:22;19.90;99.90
10468;DHT22;5281;48.878;9.394;2022-07-29T05:11:48;20.00;99.90
10468;DHT22;5281;48.878;9.394;2022-07-29T05:14:15;20.10;99.90
10468;DHT22;5281;48.878;9.394;2022-07-29T05:16:42;20.20;99.90
10468;DHT22;5281;48.878;9.394;2022-07-29T05:19:09;20.30;99.90
10468;DHT22;5281;48.878;9.394;2022-07-29T05:21:35;20.40;99.90
10468;DHT22;5281;48.878;9.394;2022-07-29T05:24:04;20.60;99.90
10468;DHT22;5281;48.878;9.394;2022-07-29T05:26:30;20.70;99.90
10468;DHT22;5281;48.878;9.394;2022-07-29T05:28:57;20.90;99.90
10468;DHT22;5281;48.878;9.394;2022-07-29T05:31:24;21.00;99.90
10468;DHT22;5281;48.878;9.394;2022-07-29T05:33:50;21.20;99.90
10468;DHT22;5281;48.878;9.394;2022-07-29T05:36:17;21.20;99.90
10468;DHT22;5281;48.878;9.394;2022-07-29T05:38:44;21.30;99.90
10468;DHT22;5281;48.878;9.394;2022-07-29T05:41:12;21.50;99.90
10468;DHT22;5281;48.878;9.394;2022-07-29T05:43:38;21.70;99.90
10468;DHT22;5281;48.878;9.394;2022-07-29T05:46:05;22.00;99.90
10468;DHT22;5281;48.878;9.394;2022-07-29T05:48:32;22.30;99.90
10468;DHT22;5281;48.878;9.394;2022-07-29T05:50:58;22.60;99.90
10468;DHT22;5281;48.878;9.394;2022-07-29T05:53:25;22.90;99.90
10468;DHT22;5281;48.878;9.394;2022-07-29T05:55:52;23.80;99.90
10468;DHT22;5281;48.878;9.394;2022-07-29T05:58:20;24.50;99.90
10468;DHT22;5281;48.878;9.394;2022-07-29T06:00:46;25.40;99.90
10468;DHT22;5281;48.878;9.394;2022-07-29T06:03:13;26.10;99.90
10468;DHT22;5281;48.878;9.394;2022-07-29T06:05:40;26.50;99.90
10468;DHT22;5281;48.878;9.394;2022-07-29T06:08:07;26.70;99.90
10468;DHT22;5281;48.878;9.394;2022-07-29T06:10:34;27.10;99.90
10468;DHT22;5281;48.878;9.394;2022-07-29T06:13:01;27.70;99.90
10468;DHT22;5281;48.878;9.394;2022-07-29T06:15:29;28.50;99.90
10468;DHT22;5281;48.878;9.394;2022-07-29T06:17:56;29.30;99.90
10468;DHT22;5281;48.878;9.394;2022-07-29T06:20:23;30.40;99.90
10468;DHT22;5281;48.878;9.394;2022-07-29T06:22:49;31.50;99.90
10468;DHT22;5281;48.878;9.394;2022-07-29T06:25:16;32.20;96.70
10468;DHT22;5281;48.878;9.394;2022-07-29T06:27:43;32.80;94.90
10468;DHT22;5281;48.878;9.394;2022-07-29T06:30:10;33.60;92.40
10468;DHT22;5281;48.878;9.394;2022-07-29T06:32:38;34.40;89.10
10468;DHT22;5281;48.878;9.394;2022-07-29T06:35:06;35.00;85.80
10468;DHT22;5281;48.878;9.394;2022-07-29T06:37:33;35.50;81.90
10468;DHT22;5281;48.878;9.394;2022-07-29T06:40:00;36.20;78.90
10468;DHT22;5281;48.878;9.394;2022-07-29T06:42:44;37.00;74.10
10468;DHT22;5281;48.878;9.394;2022-07-29T06:45:11;38.00;68.90
10468;DHT22;5281;48.878;9.394;2022-07-29T06:58:06;39.30;59.20
10468;DHT22;5281;48.878;9.394;2022-07-29T07:00:34;38.20;60.80
10468;DHT22;5281;48.878;9.394;2022-07-29T07:03:01;37.60;62.20
10468;DHT22;5281;48.878;9.394;2022-07-29T07:05:28;37.00;62.80
10468;DHT22;5281;48.878;9.394;2022-07-29T07:07:55;36.10;65.10
10468;DHT22;5281;48.878;9.394;2022-07-29T07:10:21;35.20;66.90
10468;DHT22;5281;48.878;9.394;2022-07-29T07:12:48;33.90;70.10
10468;DHT22;5281;48.878;9.394;2022-07-29T07:15:16;33.70;70.80
10468;DHT22;5281;48.878;9.394;2022-07-29T07:17:47;33.80;70.90
10468;DHT22;5281;48.878;9.394;2022-07-29T07:20:13;34.60;69.60
10468;DHT22;5281;48.878;9.394;2022-07-29T07:22:40;35.80;66.10
10468;DHT22;5281;48.878;9.394;2022-07-29T07:25:07;36.60;63.50
10468;DHT22;5281;48.878;9.394;2022-07-29T07:27:34;37.40;61.30
10468;DHT22;5281;48.878;9.394;2022-07-29T07:30:01;38.00;60.30
10468;DHT22;5281;48.878;9.394;2022-07-29T07:32:29;38.60;59.00
10468;DHT22;5281;48.878;9.394;2022-07-29T07:34:56;38.80;58.00
10468;DHT22;5281;48.878;9.394;2022-07-29T07:37:23;39.20;57.30
10468;DHT22;5281;48.878;9.394;2022-07-29T07:39:50;39.10;56.30
10468;DHT22;5281;48.878;9.394;2022-07-29T07:42:17;38.60;57.20
10468;DHT22;5281;48.878;9.394;2022-07-29T07:44:43;38.60;56.80
10468;DHT22;5281;48.878;9.394;2022-07-29T07:47:11;38.90;56.00
10468;DHT22;5281;48.878;9.394;2022-07-29T07:49:39;38.50;56.40
10468;DHT22;5281;48.878;9.394;2022-07-29T07:52:05;37.50;57.40
10468;DHT22;5281;48.878;9.394;2022-07-29T07:54:32;36.60;59.00
10468;DHT22;5281;48.878;9.394;2022-07-29T07:56:59;35.70;60.70
10468;DHT22;5281;48.878;9.394;2022-07-29T07:59:26;35.10;62.40
10468;DHT22;5281;48.878;9.394;2022-07-29T08:01:52;35.10;62.90
10468;DHT22;5281;48.878;9.394;2022-07-29T08:04:19;35.60;62.00
10468;DHT22;5281;48.878;9.394;2022-07-29T08:06:47;35.80;61.40
10468;DHT22;5281;48.878;9.394;2022-07-29T08:09:15;35.90;61.60
10468;DHT22;5281;48.878;9.394;2022-07-29T08:11:41;36.00;62.10
10468;DHT22;5281;48.878;9.394;2022-07-29T08:14:08;37.10;59.50
10468;DHT22;5281;48.878;9.394;2022-07-29T08:16:35;37.70;57.90
10468;DHT22;5281;48.878;9.394;2022-07-29T08:19:01;37.70;58.10
10468;DHT22;5281;48.878;9.394;2022-07-29T08:21:28;38.30;57.30
10468;DHT22;5281;48.878;9.394;2022-07-29T08:23:56;38.80;56.40
10468;DHT22;5281;48.878;9.394;2022-07-29T08:26:37;39.30;56.10
10468;DHT22;5281;48.878;9.394;2022-07-29T08:29:03;39.70;54.20
10468;DHT22;5281;48.878;9.394;2022-07-29T08:31:30;39.80;54.00
10468;DHT22;5281;48.878;9.394;2022-07-29T08:33:57;40.20;53.30
10468;DHT22;5281;48.878;9.394;2022-07-29T08:36:25;41.00;51.60
10468;DHT22;5281;48.878;9.394;2022-07-29T08:38:52;41.20;51.20
10468;DHT22;5281;48.878;9.394;2022-07-29T08:41:20;41.20;50.60
10468;DHT22;5281;48.878;9.394;2022-07-29T08:43:47;40.50;51.30
10468;DHT22;5281;48.878;9.394;2022-07-29T08:46:14;39.70;52.30
10468;DHT22;5281;48.878;9.394;2022-07-29T08:48:42;38.80;53.40
10468;DHT22;5281;48.878;9.394;2022-07-29T08:51:13;38.20;54.10
10468;DHT22;5281;48.878;9.394;2022-07-29T08:53:42;37.20;55.40
10468;DHT22;5281;48.878;9.394;2022-07-29T08:56:11;35.80;57.30
10468;DHT22;5281;48.878;9.394;2022-07-29T08:58:40;34.80;58.70
10468;DHT22;5281;48.878;9.394;2022-07-29T09:01:08;34.10;60.00
10468;DHT22;5281;48.878;9.394;2022-07-29T09:03:37;33.60;61.30
10468;DHT22;5281;48.878;9.394;2022-07-29T09:06:04;33.10;61.60
10468;DHT22;5281;48.878;9.394;2022-07-29T09:08:32;32.70;62.50
10468;DHT22;5281;48.878;9.394;2022-07-29T09:11:00;32.10;64.10
10468;DHT22;5281;48.878;9.394;2022-07-29T09:13:28;31.40;65.50
10468;DHT22;5281;48.878;9.394;2022-07-29T09:15:56;30.80;68.30
10468;DHT22;5281;48.878;9.394;2022-07-29T09:18:36;30.40;70.80
10468;DHT22;5281;48.878;9.394;2022-07-29T09:21:04;30.00;71.80
10468;DHT22;5281;48.878;9.394;2022-07-29T09:24:04;29.90;72.40
10468;DHT22;5281;48.878;9.394;2022-07-29T09:26:34;30.10;72.00
10468;DHT22;5281;48.878;9.394;2022-07-29T09:29:07;30.20;72.60
10468;DHT22;5281;48.878;9.394;2022-07-29T09:31:38;30.30;72.70
10468;DHT22;5281;48.878;9.394;2022-07-29T09:34:05;30.40;72.80
10468;DHT22;5281;48.878;9.394;2022-07-29T09:36:39;30.50;72.90
10468;DHT22;5281;48.878;9.394;2022-07-29T09:39:06;30.70;73.00
10468;DHT22;5281;48.878;9.394;2022-07-29T09:41:45;30.80;72.70
10468;DHT22;5281;48.878;9.394;2022-07-29T09:44:12;30.90;73.20
10468;DHT22;5281;48.878;9.394;2022-07-29T09:46:55;30.90;72.20
10468;DHT22;5281;48.878;9.394;2022-07-29T09:49:22;31.00;72.30
10468;DHT22;5281;48.878;9.394;2022-07-29T09:51:59;31.00;71.20
10468;DHT22;5281;48.878;9.394;2022-07-29T09:54:26;30.80;72.70
10468;DHT22;5281;48.878;9.394;2022-07-29T09:56:54;30.70;71.50
10468;DHT22;5281;48.878;9.394;2022-07-29T09:59:21;30.70;72.00
10468;DHT22;5281;48.878;9.394;2022-07-29T10:01:53;30.80;72.60
10468;DHT22;5281;48.878;9.394;2022-07-29T10:04:19;30.90;72.20
10468;DHT22;5281;48.878;9.394;2022-07-29T10:06:56;31.10;71.40
10468;DHT22;5281;48.878;9.394;2022-07-29T10:09:23;31.30;71.10
10468;DHT22;5281;48.878;9.394;2022-07-29T10:12:03;31.40;70.90
10468;DHT22;5281;48.878;9.394;2022-07-29T10:14:31;31.30;70.50
10468;DHT22;5281;48.878;9.394;2022-07-29T10:17:01;31.10;70.90
10468;DHT22;5281;48.878;9.394;2022-07-29T10:19:28;31.00;71.50
10468;DHT22;5281;48.878;9.394;2022-07-29T10:21:57;30.90;71.50
10468;DHT22;5281;48.878;9.394;2022-07-29T10:24:25;30.90;71.10
10468;DHT22;5281;48.878;9.394;2022-07-29T10:26:54;31.00;71.30
10468;DHT22;5281;48.878;9.394;2022-07-29T10:29:21;31.10;70.30
10468;DHT22;5281;48.878;9.394;2022-07-29T10:31:52;31.10;69.90
10468;DHT22;5281;48.878;9.394;2022-07-29T10:34:34;31.30;69.00
10468;DHT22;5281;48.878;9.394;2022-07-29T10:37:08;31.60;68.40
10468;DHT22;5281;48.878;9.394;2022-07-29T10:39:45;31.70;67.80
10468;DHT22;5281;48.878;9.394;2022-07-29T10:42:18;31.80;68.70
10468;DHT22;5281;48.878;9.394;2022-07-29T10:44:47;31.80;67.70
10468;DHT22;5281;48.878;9.394;2022-07-29T10:47:24;31.70;67.80
10468;DHT22;5281;48.878;9.394;2022-07-29T10:49:59;31.60;68.70
10468;DHT22;5281;48.878;9.394;2022-07-29T10:52:51;31.50;68.20
10468;DHT22;5281;48.878;9.394;2022-07-29T10:55:31;31.50;68.00
10468;DHT22;5281;48.878;9.394;2022-07-29T10:58:12;31.50;67.70
10468;DHT22;5281;48.878;9.394;2022-07-29T11:00:38;31.50;67.20
10468;DHT22;5281;48.878;9.394;2022-07-29T11:03:05;31.30;67.30
10468;DHT22;5281;48.878;9.394;2022-07-29T11:05:51;31.10;67.90
10468;DHT22;5281;48.878;9.394;2022-07-29T11:08:23;30.90;68.40
10468;DHT22;5281;48.878;9.394;2022-07-29T11:10:52;30.70;68.80
10468;DHT22;5281;48.878;9.394;2022-07-29T11:13:47;30.30;69.40
10468;DHT22;5281;48.878;9.394;2022-07-29T11:16:16;30.00;70.60
10468;DHT22;5281;48.878;9.394;2022-07-29T11:19:19;29.90;70.70
10468;DHT22;5281;48.878;9.394;2022-07-29T11:21:48;29.80;70.70
10468;DHT22;5281;48.878;9.394;2022-07-29T11:24:18;29.60;72.30
10468;DHT22;5281;48.878;9.394;2022-07-29T11:27:06;29.50;77.10
10468;DHT22;5281;48.878;9.394;2022-07-29T11:29:35;29.40;76.80
10468;DHT22;5281;48.878;9.394;2022-07-29T11:32:13;29.20;75.50
10468;DHT22;5281;48.878;9.394;2022-07-29T11:34:41;29.10;77.70
10468;DHT22;5281;48.878;9.394;2022-07-29T11:37:18;29.00;77.00
10468;DHT22;5281;48.878;9.394;2022-07-29T11:39:49;28.90;76.90
10468;DHT22;5281;48.878;9.394;2022-07-29T11:42:38;28.80;77.40
10468;DHT22;5281;48.878;9.394;2022-07-29T11:45:07;28.70;79.00
10468;DHT22;5281;48.878;9.394;2022-07-29T11:47:36;28.60;81.30
10468;DHT22;5281;48.878;9.394;2022-07-29T11:50:06;28.50;82.70
10468;DHT22;5281;48.878;9.394;2022-07-29T11:52:36;28.40;87.20
10468;DHT22;5281;48.878;9.394;2022-07-29T11:55:10;28.20;90.10
10468;DHT22;5281;48.878;9.394;2022-07-29T11:57:37;28.20;91.60
10468;DHT22;5281;48.878;9.394;2022-07-29T12:00:12;28.20;94.10
10468;DHT22;5281;48.878;9.394;2022-07-29T12:02:41;28.40;95.00
10468;DHT22;5281;48.878;9.394;2022-07-29T12:05:09;28.60;95.20
10468;DHT22;5281;48.878;9.394;2022-07-29T12:07:38;28.90;95.40
10468;DHT22;5281;48.878;9.394;2022-07-29T12:10:06;29.10;95.20
10468;DHT22;5281;48.878;9.394;2022-07-29T12:12:34;29.30;95.50
10468;DHT22;5281;48.878;9.394;2022-07-29T12:15:15;29.30;96.00
10468;DHT22;5281;48.878;9.394;2022-07-29T12:17:43;29.00;98.00
10468;DHT22;5281;48.878;9.394;2022-07-29T12:20:10;28.80;99.50
10468;DHT22;5281;48.878;9.394;2022-07-29T12:22:40;28.70;99.90
10468;DHT22;5281;48.878;9.394;2022-07-29T12:25:11;28.70;99.90
10468;DHT22;5281;48.878;9.394;2022-07-29T12:27:41;28.70;99.90
10468;DHT22;5281;48.878;9.394;2022-07-29T12:30:09;28.80;99.20
10468;DHT22;5281;48.878;9.394;2022-07-29T12:32:40;28.80;99.40
10468;DHT22;5281;48.878;9.394;2022-07-29T12:35:10;28.80;99.30
10468;DHT22;5281;48.878;9.394;2022-07-29T12:37:41;28.70;99.10
10468;DHT22;5281;48.878;9.394;2022-07-29T12:40:10;28.60;99.80
10468;DHT22;5281;48.878;9.394;2022-07-29T12:42:37;28.70;99.60
10468;DHT22;5281;48.878;9.394;2022-07-29T12:45:05;28.60;98.90
10468;DHT22;5281;48.878;9.394;2022-07-29T12:47:32;28.80;97.90
10468;DHT22;5281;48.878;9.394;2022-07-29T12:50:10;29.00;97.30
10468;DHT22;5281;48.878;9.394;2022-07-29T12:52:37;29.20;96.60
10468;DHT22;5281;48.878;9.394;2022-07-29T12:55:06;29.30;96.20
10468;DHT22;5281;48.878;9.394;2022-07-29T12:57:44;29.60;94.90
10468;DHT22;5281;48.878;9.394;2022-07-29T13:00:13;29.60;94.10
10468;DHT22;5281;48.878;9.394;2022-07-29T13:02:42;29.70;93.30
10468;DHT22;5281;48.878;9.394;2022-07-29T13:05:10;29.70;92.50
10468;DHT22;5281;48.878;9.394;2022-07-29T13:07:38;29.80;92.50
10468;DHT22;5281;48.878;9.394;2022-07-29T13:10:14;29.90;92.40
10468;DHT22;5281;48.878;9.394;2022-07-29T13:13:04;30.20;91.70
10468;DHT22;5281;48.878;9.394;2022-07-29T13:15:32;30.30;90.00
10468;DHT22;5281;48.878;9.394;2022-07-29T13:17:59;30.40;84.80
10468;DHT22;5281;48.878;9.394;2022-07-29T13:20:28;30.40;82.70
10468;DHT22;5281;48.878;9.394;2022-07-29T13:22:56;30.30;81.50
10468;DHT22;5281;48.878;9.394;2022-07-29T13:25:26;30.30;81.50
10468;DHT22;5281;48.878;9.394;2022-07-29T13:27:54;30.20;82.50
10468;DHT22;5281;48.878;9.394;2022-07-29T13:30:21;30.00;82.20
10468;DHT22;5281;48.878;9.394;2022-07-29T13:32:49;29.70;82.50
10468;DHT22;5281;48.878;9.394;2022-07-29T13:35:16;29.30;82.50
10468;DHT22;5281;48.878;9.394;2022-07-29T13:37:43;29.00;82.80
10468;DHT22;5281;48.878;9.394;2022-07-29T13:40:10;28.80;84.70
10468;DHT22;5281;48.878;9.394;2022-07-29T13:42:39;28.60;85.60
10468;DHT22;5281;48.878;9.394;2022-07-29T13:45:07;28.40;87.40
10468;DHT22;5281;48.878;9.394;2022-07-29T13:47:34;28.20;86.60
10468;DHT22;5281;48.878;9.394;2022-07-29T13:50:01;28.00;89.80
10468;DHT22;5281;48.878;9.394;2022-07-29T13:52:28;27.80;91.60
10468;DHT22;5281;48.878;9.394;2022-07-29T13:54:55;27.50;94.50
10468;DHT22;5281;48.878;9.394;2022-07-29T13:57:22;27.30;95.70
10468;DHT22;5281;48.878;9.394;2022-07-29T13:59:50;27.10;96.70
10468;DHT22;5281;48.878;9.394;2022-07-29T14:02:17;27.00;97.70
10468;DHT22;5281;48.878;9.394;2022-07-29T14:04:44;26.90;98.60
10468;DHT22;5281;48.878;9.394;2022-07-29T14:07:10;26.80;99.10
10468;DHT22;5281;48.878;9.394;2022-07-29T14:09:38;26.80;99.90
10468;DHT22;5281;48.878;9.394;2022-07-29T14:12:05;26.70;99.90
10468;DHT22;5281;48.878;9.394;2022-07-29T14:14:32;26.70;99.90
10468;DHT22;5281;48.878;9.394;2022-07-29T14:17:02;26.80;99.90
10468;DHT22;5281;48.878;9.394;2022-07-29T14:19:31;26.90;99.90
10468;DHT22;5281;48.878;9.394;2022-07-29T14:22:01;27.00;99.90
10468;DHT22;5281;48.878;9.394;2022-07-29T14:24:28;27.10;99.90
10468;DHT22;5281;48.878;9.394;2022-07-29T14:26:55;27.00;99.90
10468;DHT22;5281;48.878;9.394;2022-07-29T14:29:22;27.00;99.90
10468;DHT22;5281;48.878;9.394;2022-07-29T14:31:49;26.90;99.90
10468;DHT22;5281;48.878;9.394;2022-07-29T14:34:17;26.90;99.90
10468;DHT22;5281;48.878;9.394;2022-07-29T14:36:44;26.90;99.90
10468;DHT22;5281;48.878;9.394;2022-07-29T14:39:10;26.80;99.90
10468;DHT22;5281;48.878;9.394;2022-07-29T14:41:38;26.80;99.90
10468;DHT22;5281;48.878;9.394;2022-07-29T14:44:05;26.90;99.90
10468;DHT22;5281;48.878;9.394;2022-07-29T14:46:31;26.90;99.90
10468;DHT22;5281;48.878;9.394;2022-07-29T14:48:58;26.90;99.90
10468;DHT22;5281;48.878;9.394;2022-07-29T14:51:26;26.90;99.90
10468;DHT22;5281;48.878;9.394;2022-07-29T14:53:53;26.80;99.90
10468;DHT22;5281;48.878;9.394;2022-07-29T14:56:21;26.90;99.90
10468;DHT22;5281;48.878;9.394;2022-07-29T14:58:48;26.90;99.90
10468;DHT22;5281;48.878;9.394;2022-07-29T15:01:15;27.00;99.90
10468;DHT22;5281;48.878;9.394;2022-07-29T15:03:41;27.20;99.90
10468;DHT22;5281;48.878;9.394;2022-07-29T15:06:08;27.40;99.90
10468;DHT22;5281;48.878;9.394;2022-07-29T15:08:36;27.50;99.90
10468;DHT22;5281;48.878;9.394;2022-07-29T15:11:03;27.40;99.90
10468;DHT22;5281;48.878;9.394;2022-07-29T15:13:29;27.50;99.90
10468;DHT22;5281;48.878;9.394;2022-07-29T15:15:56;27.60;99.80
10468;DHT22;5281;48.878;9.394;2022-07-29T15:18:23;27.70;99.30
10468;DHT22;5281;48.878;9.394;2022-07-29T15:20:49;27.70;97.60
10468;DHT22;5281;48.878;9.394;2022-07-29T15:23:16;27.70;97.10
10468;DHT22;5281;48.878;9.394;2022-07-29T15:25:44;27.70;98.20
10468;DHT22;5281;48.878;9.394;2022-07-29T15:28:11;27.50;99.20
10468;DHT22;5281;48.878;9.394;2022-07-29T15:30:38;27.50;99.90
10468;DHT22;5281;48.878;9.394;2022-07-29T15:33:07;27.40;99.30
10468;DHT22;5281;48.878;9.394;2022-07-29T15:35:34;27.20;99.30
10468;DHT22;5281;48.878;9.394;2022-07-29T15:38:01;27.00;99.80
10468;DHT22;5281;48.878;9.394;2022-07-29T15:40:28;26.90;99.90
10468;DHT22;5281;48.878;9.394;2022-07-29T15:42:56;26.80;99.90
10468;DHT22;5281;48.878;9.394;2022-07-29T15:45:26;26.90;99.90
10468;DHT22;5281;48.878;9.394;2022-07-29T15:47:53;27.10;99.90
10468;DHT22;5281;48.878;9.394;2022-07-29T15:50:20;27.20;99.70
10468;DHT22;5281;48.878;9.394;2022-07-29T15:52:47;27.20;99.50
10468;DHT22;5281;48.878;9.394;2022-07-29T15:55:13;27.30;99.50
10468;DHT22;5281;48.878;9.394;2022-07-29T15:57:40;27.30;99.20
10468;DHT22;5281;48.878;9.394;2022-07-29T16:00:10;27.50;98.90
10468;DHT22;5281;48.878;9.394;2022-07-29T16:02:38;27.50;98.60
10468;DHT22;5281;48.878;9.394;2022-07-29T16:05:05;27.50;98.50
10468;DHT22;5281;48.878;9.394;2022-07-29T16:07:32;27.50;98.50
10468;DHT22;5281;48.878;9.394;2022-07-29T16:09:58;27.60;98.40
10468;DHT22;5281;48.878;9.394;2022-07-29T16:12:25;27.60;97.40
10468;DHT22;5281;48.878;9.394;2022-07-29T16:14:51;27.60;97.20
10468;DHT22;5281;48.878;9.394;2022-07-29T16:17:20;27.60;97.40
10468;DHT22;5281;48.878;9.394;2022-07-29T16:19:47;27.70;97.40
10468;DHT22;5281;48.878;9.394;2022-07-29T16:22:13;27.70;97.00
10468;DHT22;5281;48.878;9.394;2022-07-29T16:24:40;27.80;96.70
10468;DHT22;5281;48.878;9.394;2022-07-29T16:27:07;27.80;96.60
10468;DHT22;5281;48.878;9.394;2022-07-29T16:29:33;27.80;96.20
10468;DHT22;5281;48.878;9.394;2022-07-29T16:32:01;27.80;96.10
10468;DHT22;5281;48.878;9.394;2022-07-29T16:34:29;27.80;95.60
10468;DHT22;5281;48.878;9.394;2022-07-29T16:36:56;27.80;95.30
10468;DHT22;5281;48.878;9.394;2022-07-29T16:39:22;27.90;95.20
10468;DHT22;5281;48.878;9.394;2022-07-29T16:41:49;27.90;95.20
10468;DHT22;5281;48.878;9.394;2022-07-29T16:44:16;27.90;95.20
10468;DHT22;5281;48.878;9.394;2022-07-29T16:46:43;28.00;95.40
10468;DHT22;5281;48.878;9.394;2022-07-29T16:49:10;28.00;95.50
10468;DHT22;5281;48.878;9.394;2022-07-29T16:51:38;27.90;95.60
10468;DHT22;5281;48.878;9.394;2022-07-29T16:54:04;28.00;95.50